Vida, OR (97488)

9:00 PM PST on January 30, 2015 (GMT -0800)
RAWS TROUT CREEK OR US | Change Station
CLOSE
Current Station
Personal Weather Station
Location: Leaburg, OR
Elevation: 2268 ft
Nearby Weather Stations

Elev 2268 ft 44.11 °N, 122.58 °W | Updated 46 minutes ago

Partly Cloudy
Partly Cloudy
42 °F
Feels Like 42 °F
N
0
Wind Variable Wind from North
Gusts 3.0 mph

Today
High -- | Low -- °F
--% Chance of Precip.
Yesterday
High -- | Low -- °F
Precip. -- in
7:29 AM 5:16 PM
Waxing Gibbous, 87% visible
Pressure 30.24 in
Visibility 8.0 miles
Clouds Clear
Windchill 42 °F
Dew Point 40 °F
Humidity 92%
Rainfall 0.00 in
Snow Depth Not available.
UV 0 out of 12
Pollen 4.20 out of 12
Air Quality Not available.
Flu Activity Not available.
METAR KEUG 310454Z 14004KT 8SM CLR 03/02 A3023 RMK AO2 SLP239 T00330022

More Conditions Fewer Conditions

Pressure 30.24 in
Visibility 8.0 miles
Clouds Clear
Windchill 42 °F
Dew Point 40 °F
Humidity 92%
Rainfall 0.00 in
Snow Depth Not available.
UV 0 out of 12
Pollen 4.20 out of 12
Air Quality Not available.
Flu Activity Not available.
METAR KEUG 310454Z 14004KT 8SM CLR 03/02 A3023 RMK AO2 SLP239 T00330022

More Conditions Fewer Conditions

10-Day Weather Forecast

Almanac

Astronomy

Jan. 30, 2015 Rise Set
Actual Time
Civil Twilight
Nautical Twilight
Astronomical Twilight
Moon
Length of Visible Light
Length of Day
Tomorrow will be .
, % of the Moon is Illuminated

Today's Extremes

State Highs State Lows

Community

WunderPhotos

Upload Photos

1,792,002 photos uploaded!

WunderBlogs® & News

Nearby

Air Quality

  Air Quality AQ Index Pollutant
Not available.

Snow Depth

Station Depth Elevation

Earthquake Activity

City Distance Mag. Time & Date
Minimum magnitude displayed is 2.5.

Coastal Water Temperatures

Place Temperature

Nearby Weather Stations